sensor_id;sensor_type;location;lat;lon;timestamp;temperature;humidity
42347;DHT22;75728;51.856;6.314;2024-02-15T00:01:41;21.40;99.90
42347;DHT22;75728;51.856;6.314;2024-02-15T00:04:07;21.40;99.90
42347;DHT22;75728;51.856;6.314;2024-02-15T00:06:33;21.40;99.90
42347;DHT22;75728;51.856;6.314;2024-02-15T00:08:58;21.40;99.90
42347;DHT22;75728;51.856;6.314;2024-02-15T00:11:24;21.40;99.90
42347;DHT22;75728;51.856;6.314;2024-02-15T00:13:49;21.40;99.90
42347;DHT22;75728;51.856;6.314;2024-02-15T00:16:15;21.40;99.90
42347;DHT22;75728;51.856;6.314;2024-02-15T00:18:41;21.40;99.90
42347;DHT22;75728;51.856;6.314;2024-02-15T00:21:06;21.40;99.90
42347;DHT22;75728;51.856;6.314;2024-02-15T00:23:32;21.40;99.90
42347;DHT22;75728;51.856;6.314;2024-02-15T00:25:58;21.40;99.90
42347;DHT22;75728;51.856;6.314;2024-02-15T00:28:24;21.40;99.90
42347;DHT22;75728;51.856;6.314;2024-02-15T00:30:52;21.40;99.90
42347;DHT22;75728;51.856;6.314;2024-02-15T00:33:17;21.40;99.90
42347;DHT22;75728;51.856;6.314;2024-02-15T00:35:43;21.40;99.90
42347;DHT22;75728;51.856;6.314;2024-02-15T00:38:09;21.40;99.90
42347;DHT22;75728;51.856;6.314;2024-02-15T00:40:34;21.40;99.90
42347;DHT22;75728;51.856;6.314;2024-02-15T00:43:00;21.40;99.90
42347;DHT22;75728;51.856;6.314;2024-02-15T00:45:26;21.50;99.90
42347;DHT22;75728;51.856;6.314;2024-02-15T00:47:51;21.40;99.90
42347;DHT22;75728;51.856;6.314;2024-02-15T00:50:17;21.40;99.90
42347;DHT22;75728;51.856;6.314;2024-02-15T00:52:42;21.40;99.90
42347;DHT22;75728;51.856;6.314;2024-02-15T00:55:08;21.50;99.90
42347;DHT22;75728;51.856;6.314;2024-02-15T00:57:34;21.40;99.90
42347;DHT22;75728;51.856;6.314;2024-02-15T01:00:00;21.40;99.90
42347;DHT22;75728;51.856;6.314;2024-02-15T01:02:27;21.40;99.90
42347;DHT22;75728;51.856;6.314;2024-02-15T01:04:53;21.40;99.90
42347;DHT22;75728;51.856;6.314;2024-02-15T01:07:20;21.40;99.90
42347;DHT22;75728;51.856;6.314;2024-02-15T01:09:46;21.40;99.90
42347;DHT22;75728;51.856;6.314;2024-02-15T01:12:12;21.40;99.90
42347;DHT22;75728;51.856;6.314;2024-02-15T01:14:37;21.40;99.90
42347;DHT22;75728;51.856;6.314;2024-02-15T01:17:03;21.40;99.90
42347;DHT22;75728;51.856;6.314;2024-02-15T01:19:29;21.40;99.90
42347;DHT22;75728;51.856;6.314;2024-02-15T01:21:55;21.40;99.90
42347;DHT22;75728;51.856;6.314;2024-02-15T01:24:21;21.40;99.90
42347;DHT22;75728;51.856;6.314;2024-02-15T01:26:47;21.40;99.90
42347;DHT22;75728;51.856;6.314;2024-02-15T01:29:14;21.40;99.90
42347;DHT22;75728;51.856;6.314;2024-02-15T01:31:40;21.40;99.90
42347;DHT22;75728;51.856;6.314;2024-02-15T01:34:05;21.40;99.90
42347;DHT22;75728;51.856;6.314;2024-02-15T01:36:31;21.40;99.90
42347;DHT22;75728;51.856;6.314;2024-02-15T01:38:57;21.40;99.90
42347;DHT22;75728;51.856;6.314;2024-02-15T01:41:22;21.40;99.90
42347;DHT22;75728;51.856;6.314;2024-02-15T01:43:48;21.40;99.90
42347;DHT22;75728;51.856;6.314;2024-02-15T01:46:15;21.40;99.90
42347;DHT22;75728;51.856;6.314;2024-02-15T01:48:42;21.30;99.90
42347;DHT22;75728;51.856;6.314;2024-02-15T01:51:09;21.40;99.90
42347;DHT22;75728;51.856;6.314;2024-02-15T01:53:36;21.40;99.90
42347;DHT22;75728;51.856;6.314;2024-02-15T01:56:02;21.30;99.90
42347;DHT22;75728;51.856;6.314;2024-02-15T01:58:28;21.30;99.90
42347;DHT22;75728;51.856;6.314;2024-02-15T02:00:57;21.40;99.90
42347;DHT22;75728;51.856;6.314;2024-02-15T02:03:23;21.40;99.90
42347;DHT22;75728;51.856;6.314;2024-02-15T02:05:49;21.40;99.90
42347;DHT22;75728;51.856;6.314;2024-02-15T02:08:14;21.40;99.90
42347;DHT22;75728;51.856;6.314;2024-02-15T02:10:40;21.30;99.90
42347;DHT22;75728;51.856;6.314;2024-02-15T02:13:06;21.30;99.90
42347;DHT22;75728;51.856;6.314;2024-02-15T02:15:32;21.30;99.90
42347;DHT22;75728;51.856;6.314;2024-02-15T02:17:58;21.30;99.90
42347;DHT22;75728;51.856;6.314;2024-02-15T02:20:25;21.40;99.90
42347;DHT22;75728;51.856;6.314;2024-02-15T02:22:53;21.40;99.90
42347;DHT22;75728;51.856;6.314;2024-02-15T02:25:23;21.30;99.90
42347;DHT22;75728;51.856;6.314;2024-02-15T02:27:51;21.30;99.90
42347;DHT22;75728;51.856;6.314;2024-02-15T02:30:17;21.40;99.90
42347;DHT22;75728;51.856;6.314;2024-02-15T02:32:45;21.30;99.90
42347;DHT22;75728;51.856;6.314;2024-02-15T02:35:11;21.30;99.90
42347;DHT22;75728;51.856;6.314;2024-02-15T02:37:42;21.30;99.90
42347;DHT22;75728;51.856;6.314;2024-02-15T02:40:08;21.30;99.90
42347;DHT22;75728;51.856;6.314;2024-02-15T02:45:17;21.30;99.90
42347;DHT22;75728;51.856;6.314;2024-02-15T02:47:48;21.40;99.90
42347;DHT22;75728;51.856;6.314;2024-02-15T02:50:14;21.30;99.90
42347;DHT22;75728;51.856;6.314;2024-02-15T02:52:40;21.40;99.90
42347;DHT22;75728;51.856;6.314;2024-02-15T02:55:06;21.40;99.90
42347;DHT22;75728;51.856;6.314;2024-02-15T02:57:35;21.30;99.90
42347;DHT22;75728;51.856;6.314;2024-02-15T03:00:06;21.40;99.90
42347;DHT22;75728;51.856;6.314;2024-02-15T03:02:38;21.40;99.90
42347;DHT22;75728;51.856;6.314;2024-02-15T03:05:04;21.40;99.90
42347;DHT22;75728;51.856;6.314;2024-02-15T03:07:33;21.40;99.90
42347;DHT22;75728;51.856;6.314;2024-02-15T03:09:59;21.40;99.90
42347;DHT22;75728;51.856;6.314;2024-02-15T03:12:24;21.40;99.90
42347;DHT22;75728;51.856;6.314;2024-02-15T03:14:52;21.40;99.90
42347;DHT22;75728;51.856;6.314;2024-02-15T03:17:17;21.40;99.90
42347;DHT22;75728;51.856;6.314;2024-02-15T03:19:43;21.30;99.90
42347;DHT22;75728;51.856;6.314;2024-02-15T03:22:09;21.30;99.90
42347;DHT22;75728;51.856;6.314;2024-02-15T03:24:34;21.30;99.90
42347;DHT22;75728;51.856;6.314;2024-02-15T03:27:00;21.30;99.90
42347;DHT22;75728;51.856;6.314;2024-02-15T03:29:26;21.30;99.90
42347;DHT22;75728;51.856;6.314;2024-02-15T03:31:52;21.30;99.90
42347;DHT22;75728;51.856;6.314;2024-02-15T03:34:19;21.40;99.90
42347;DHT22;75728;51.856;6.314;2024-02-15T03:36:47;21.30;99.90
42347;DHT22;75728;51.856;6.314;2024-02-15T03:39:19;21.30;99.90
42347;DHT22;75728;51.856;6.314;2024-02-15T03:41:45;21.30;99.90
42347;DHT22;75728;51.856;6.314;2024-02-15T03:44:12;21.40;99.90
42347;DHT22;75728;51.856;6.314;2024-02-15T03:46:37;21.30;99.90
42347;DHT22;75728;51.856;6.314;2024-02-15T03:49:03;21.40;99.90
42347;DHT22;75728;51.856;6.314;2024-02-15T03:51:29;21.30;99.90
42347;DHT22;75728;51.856;6.314;2024-02-15T03:53:54;21.30;99.90
42347;DHT22;75728;51.856;6.314;2024-02-15T03:56:20;21.30;99.90
42347;DHT22;75728;51.856;6.314;2024-02-15T03:58:48;21.30;99.90
42347;DHT22;75728;51.856;6.314;2024-02-15T04:01:17;21.30;99.90
42347;DHT22;75728;51.856;6.314;2024-02-15T04:03:43;21.30;99.90
42347;DHT22;75728;51.856;6.314;2024-02-15T04:06:08;21.30;99.90
42347;DHT22;75728;51.856;6.314;2024-02-15T04:08:38;21.30;99.90
42347;DHT22;75728;51.856;6.314;2024-02-15T04:11:05;21.30;99.90
42347;DHT22;75728;51.856;6.314;2024-02-15T04:13:34;21.30;99.90
42347;DHT22;75728;51.856;6.314;2024-02-15T04:15:59;21.30;99.90
42347;DHT22;75728;51.856;6.314;2024-02-15T04:18:25;21.20;99.90
42347;DHT22;75728;51.856;6.314;2024-02-15T04:20:50;21.30;99.90
42347;DHT22;75728;51.856;6.314;2024-02-15T04:23:17;21.30;99.90
42347;DHT22;75728;51.856;6.314;2024-02-15T04:25:44;21.30;99.90
42347;DHT22;75728;51.856;6.314;2024-02-15T04:28:16;21.30;99.90
42347;DHT22;75728;51.856;6.314;2024-02-15T04:30:41;21.30;99.90
42347;DHT22;75728;51.856;6.314;2024-02-15T04:33:07;21.30;99.90
42347;DHT22;75728;51.856;6.314;2024-02-15T04:35:33;21.20;99.90
42347;DHT22;75728;51.856;6.314;2024-02-15T04:37:59;21.30;99.90
42347;DHT22;75728;51.856;6.314;2024-02-15T04:40:25;21.30;99.90
42347;DHT22;75728;51.856;6.314;2024-02-15T04:42:51;21.30;99.90
42347;DHT22;75728;51.856;6.314;2024-02-15T04:45:17;21.30;99.90
42347;DHT22;75728;51.856;6.314;2024-02-15T04:47:44;21.30;99.90
42347;DHT22;75728;51.856;6.314;2024-02-15T04:50:15;21.30;99.90
42347;DHT22;75728;51.856;6.314;2024-02-15T04:52:43;21.30;99.90
42347;DHT22;75728;51.856;6.314;2024-02-15T04:55:11;21.30;99.90
42347;DHT22;75728;51.856;6.314;2024-02-15T04:57:37;21.30;99.90
42347;DHT22;75728;51.856;6.314;2024-02-15T05:00:03;21.30;99.90
42347;DHT22;75728;51.856;6.314;2024-02-15T05:02:36;21.30;99.90
42347;DHT22;75728;51.856;6.314;2024-02-15T05:05:06;21.30;99.90
42347;DHT22;75728;51.856;6.314;2024-02-15T05:07:33;21.30;99.90
42347;DHT22;75728;51.856;6.314;2024-02-15T05:10:00;21.30;99.90
42347;DHT22;75728;51.856;6.314;2024-02-15T05:12:28;21.20;99.90
42347;DHT22;75728;51.856;6.314;2024-02-15T05:14:56;21.20;99.90
42347;DHT22;75728;51.856;6.314;2024-02-15T05:17:21;21.20;99.90
42347;DHT22;75728;51.856;6.314;2024-02-15T05:19:47;21.20;99.90
42347;DHT22;75728;51.856;6.314;2024-02-15T05:22:13;21.20;99.90
42347;DHT22;75728;51.856;6.314;2024-02-15T05:24:40;21.20;99.90
42347;DHT22;75728;51.856;6.314;2024-02-15T05:27:06;21.20;99.90
42347;DHT22;75728;51.856;6.314;2024-02-15T05:29:32;21.20;99.90
42347;DHT22;75728;51.856;6.314;2024-02-15T05:32:01;21.20;99.90
42347;DHT22;75728;51.856;6.314;2024-02-15T05:34:27;21.20;99.90
42347;DHT22;75728;51.856;6.314;2024-02-15T05:36:55;21.20;99.90
42347;DHT22;75728;51.856;6.314;2024-02-15T05:39:20;21.10;99.90
42347;DHT22;75728;51.856;6.314;2024-02-15T05:41:47;21.20;99.90
42347;DHT22;75728;51.856;6.314;2024-02-15T05:44:13;21.20;99.90
42347;DHT22;75728;51.856;6.314;2024-02-15T05:46:44;21.20;99.90
42347;DHT22;75728;51.856;6.314;2024-02-15T05:49:10;21.20;99.90
42347;DHT22;75728;51.856;6.314;2024-02-15T05:51:41;21.10;99.90
42347;DHT22;75728;51.856;6.314;2024-02-15T05:54:06;21.10;99.90
42347;DHT22;75728;51.856;6.314;2024-02-15T05:56:32;21.10;99.90
42347;DHT22;75728;51.856;6.314;2024-02-15T05:58:58;21.20;99.90
42347;DHT22;75728;51.856;6.314;2024-02-15T06:01:23;21.10;99.90
42347;DHT22;75728;51.856;6.314;2024-02-15T06:03:49;21.20;99.90
42347;DHT22;75728;51.856;6.314;2024-02-15T06:06:15;21.20;99.90
42347;DHT22;75728;51.856;6.314;2024-02-15T06:08:41;21.20;99.90
42347;DHT22;75728;51.856;6.314;2024-02-15T06:11:07;21.20;99.90
42347;DHT22;75728;51.856;6.314;2024-02-15T06:13:34;21.20;99.90
42347;DHT22;75728;51.856;6.314;2024-02-15T06:16:00;21.20;99.90
42347;DHT22;75728;51.856;6.314;2024-02-15T06:18:28;21.20;99.90
42347;DHT22;75728;51.856;6.314;2024-02-15T06:20:55;21.20;99.90
42347;DHT22;75728;51.856;6.314;2024-02-15T06:23:23;21.10;99.90
42347;DHT22;75728;51.856;6.314;2024-02-15T06:25:51;21.10;99.90
42347;DHT22;75728;51.856;6.314;2024-02-15T06:28:16;21.20;99.90
42347;DHT22;75728;51.856;6.314;2024-02-15T06:31:09;21.20;99.90
42347;DHT22;75728;51.856;6.314;2024-02-15T06:33:54;21.20;99.90
42347;DHT22;75728;51.856;6.314;2024-02-15T06:36:47;21.20;99.90
42347;DHT22;75728;51.856;6.314;2024-02-15T06:39:32;21.10;99.90
42347;DHT22;75728;51.856;6.314;2024-02-15T06:42:04;21.10;99.90
42347;DHT22;75728;51.856;6.314;2024-02-15T06:44:30;21.10;99.90
42347;DHT22;75728;51.856;6.314;2024-02-15T06:46:55;21.00;99.90
42347;DHT22;75728;51.856;6.314;2024-02-15T06:49:22;21.10;99.90
42347;DHT22;75728;51.856;6.314;2024-02-15T06:51:50;21.00;99.90
42347;DHT22;75728;51.856;6.314;2024-02-15T06:54:16;21.00;99.90
42347;DHT22;75728;51.856;6.314;2024-02-15T06:56:44;21.10;99.90
42347;DHT22;75728;51.856;6.314;2024-02-15T06:59:12;21.10;99.90
42347;DHT22;75728;51.856;6.314;2024-02-15T07:01:41;21.10;99.90
42347;DHT22;75728;51.856;6.314;2024-02-15T07:04:07;21.10;99.90
42347;DHT22;75728;51.856;6.314;2024-02-15T07:06:39;21.10;99.90
42347;DHT22;75728;51.856;6.314;2024-02-15T07:09:08;21.10;99.90
42347;DHT22;75728;51.856;6.314;2024-02-15T07:11:33;21.10;99.90
42347;DHT22;75728;51.856;6.314;2024-02-15T07:14:02;21.10;99.90
42347;DHT22;75728;51.856;6.314;2024-02-15T07:16:28;21.10;99.90
42347;DHT22;75728;51.856;6.314;2024-02-15T07:18:54;21.10;99.90
42347;DHT22;75728;51.856;6.314;2024-02-15T07:21:20;21.10;99.90
42347;DHT22;75728;51.856;6.314;2024-02-15T07:23:51;21.20;99.90
42347;DHT22;75728;51.856;6.314;2024-02-15T07:26:17;21.10;99.90
42347;DHT22;75728;51.856;6.314;2024-02-15T07:28:45;21.10;99.90
42347;DHT22;75728;51.856;6.314;2024-02-15T07:31:11;21.10;99.90
42347;DHT22;75728;51.856;6.314;2024-02-15T07:33:37;21.10;99.90
42347;DHT22;75728;51.856;6.314;2024-02-15T07:36:04;21.10;99.90
42347;DHT22;75728;51.856;6.314;2024-02-15T07:38:30;21.10;99.90
42347;DHT22;75728;51.856;6.314;2024-02-15T07:40:59;21.10;99.90
42347;DHT22;75728;51.856;6.314;2024-02-15T07:43:25;21.00;99.90
42347;DHT22;75728;51.856;6.314;2024-02-15T07:45:52;21.00;99.90
42347;DHT22;75728;51.856;6.314;2024-02-15T07:48:17;21.00;99.90
42347;DHT22;75728;51.856;6.314;2024-02-15T07:50:43;21.00;99.90
42347;DHT22;75728;51.856;6.314;2024-02-15T07:53:10;21.00;99.90
42347;DHT22;75728;51.856;6.314;2024-02-15T07:55:37;21.00;99.90
42347;DHT22;75728;51.856;6.314;2024-02-15T07:58:03;21.10;99.90
42347;DHT22;75728;51.856;6.314;2024-02-15T08:00:30;21.10;99.90
42347;DHT22;75728;51.856;6.314;2024-02-15T08:02:55;20.60;99.90
42347;DHT22;75728;51.856;6.314;2024-02-15T08:05:23;20.50;99.90
42347;DHT22;75728;51.856;6.314;2024-02-15T08:07:48;20.40;99.90
42347;DHT22;75728;51.856;6.314;2024-02-15T08:10:15;20.30;99.90
42347;DHT22;75728;51.856;6.314;2024-02-15T08:12:41;20.30;99.90
42347;DHT22;75728;51.856;6.314;2024-02-15T08:15:08;20.20;99.90
42347;DHT22;75728;51.856;6.314;2024-02-15T08:17:41;20.20;99.90
42347;DHT22;75728;51.856;6.314;2024-02-15T08:20:10;20.20;99.90
42347;DHT22;75728;51.856;6.314;2024-02-15T08:22:36;20.20;99.90
42347;DHT22;75728;51.856;6.314;2024-02-15T08:25:10;20.10;99.90
42347;DHT22;75728;51.856;6.314;2024-02-15T08:27:42;20.10;99.90
42347;DHT22;75728;51.856;6.314;2024-02-15T08:30:12;20.10;99.90
42347;DHT22;75728;51.856;6.314;2024-02-15T08:32:39;20.10;99.90
42347;DHT22;75728;51.856;6.314;2024-02-15T08:35:06;20.10;99.90
42347;DHT22;75728;51.856;6.314;2024-02-15T08:37:32;20.10;99.90
42347;DHT22;75728;51.856;6.314;2024-02-15T08:40:03;20.10;99.90
42347;DHT22;75728;51.856;6.314;2024-02-15T08:42:29;20.00;99.90
42347;DHT22;75728;51.856;6.314;2024-02-15T08:44:55;20.10;99.90
42347;DHT22;75728;51.856;6.314;2024-02-15T08:47:21;20.10;99.90
42347;DHT22;75728;51.856;6.314;2024-02-15T08:49:46;20.00;99.90
42347;DHT22;75728;51.856;6.314;2024-02-15T08:52:12;20.00;99.90
42347;DHT22;75728;51.856;6.314;2024-02-15T08:54:38;20.00;99.90
42347;DHT22;75728;51.856;6.314;2024-02-15T08:57:07;20.00;99.90
42347;DHT22;75728;51.856;6.314;2024-02-15T08:59:32;20.00;99.90
42347;DHT22;75728;51.856;6.314;2024-02-15T09:01:58;20.00;99.90
42347;DHT22;75728;51.856;6.314;2024-02-15T09:04:25;20.00;99.90
42347;DHT22;75728;51.856;6.314;2024-02-15T09:06:51;20.00;99.90
42347;DHT22;75728;51.856;6.314;2024-02-15T09:09:17;20.00;99.90
42347;DHT22;75728;51.856;6.314;2024-02-15T09:11:43;20.00;99.90
42347;DHT22;75728;51.856;6.314;2024-02-15T09:14:09;20.00;99.90
42347;DHT22;75728;51.856;6.314;2024-02-15T09:16:37;20.00;99.90
42347;DHT22;75728;51.856;6.314;2024-02-15T09:19:03;20.00;99.90
42347;DHT22;75728;51.856;6.314;2024-02-15T09:21:28;20.00;99.90
42347;DHT22;75728;51.856;6.314;2024-02-15T09:23:55;20.00;99.90
42347;DHT22;75728;51.856;6.314;2024-02-15T09:26:21;20.10;99.90
42347;DHT22;75728;51.856;6.314;2024-02-15T09:28:47;20.00;99.90
42347;DHT22;75728;51.856;6.314;2024-02-15T09:31:13;20.10;99.90
42347;DHT22;75728;51.856;6.314;2024-02-15T09:33:41;20.10;99.90
42347;DHT22;75728;51.856;6.314;2024-02-15T09:36:07;20.10;99.90
42347;DHT22;75728;51.856;6.314;2024-02-15T09:38:33;20.10;99.90
42347;DHT22;75728;51.856;6.314;2024-02-15T09:40:59;20.10;99.90
42347;DHT22;75728;51.856;6.314;2024-02-15T09:43:25;20.10;99.90
42347;DHT22;75728;51.856;6.314;2024-02-15T09:45:52;20.10;99.90
42347;DHT22;75728;51.856;6.314;2024-02-15T09:48:24;20.10;99.90
42347;DHT22;75728;51.856;6.314;2024-02-15T09:50:52;20.10;99.90
42347;DHT22;75728;51.856;6.314;2024-02-15T09:53:21;20.10;99.90
42347;DHT22;75728;51.856;6.314;2024-02-15T09:55:47;20.10;99.90
42347;DHT22;75728;51.856;6.314;2024-02-15T09:58:14;20.10;99.90
42347;DHT22;75728;51.856;6.314;2024-02-15T10:00:40;20.10;99.90
42347;DHT22;75728;51.856;6.314;2024-02-15T10:03:08;20.10;99.90
42347;DHT22;75728;51.856;6.314;2024-02-15T10:05:35;20.10;99.90
42347;DHT22;75728;51.856;6.314;2024-02-15T10:08:02;20.10;99.90
42347;DHT22;75728;51.856;6.314;2024-02-15T10:10:28;20.10;99.90
42347;DHT22;75728;51.856;6.314;2024-02-15T10:12:55;20.10;99.90
42347;DHT22;75728;51.856;6.314;2024-02-15T10:15:30;20.10;99.90
42347;DHT22;75728;51.856;6.314;2024-02-15T10:17:57;20.00;99.90
42347;DHT22;75728;51.856;6.314;2024-02-15T10:20:24;20.10;99.90
42347;DHT22;75728;51.856;6.314;2024-02-15T10:23:13;20.00;99.90
42347;DHT22;75728;51.856;6.314;2024-02-15T10:25:42;20.00;99.90
42347;DHT22;75728;51.856;6.314;2024-02-15T10:28:10;20.10;99.90
42347;DHT22;75728;51.856;6.314;2024-02-15T10:30:37;20.00;99.90
42347;DHT22;75728;51.856;6.314;2024-02-15T10:33:04;20.00;99.90
42347;DHT22;75728;51.856;6.314;2024-02-15T10:35:30;20.10;99.90
42347;DHT22;75728;51.856;6.314;2024-02-15T10:38:09;20.10;99.90
42347;DHT22;75728;51.856;6.314;2024-02-15T10:40:36;20.10;99.90
42347;DHT22;75728;51.856;6.314;2024-02-15T10:43:03;20.10;99.90
42347;DHT22;75728;51.856;6.314;2024-02-15T10:45:31;20.10;99.90
42347;DHT22;75728;51.856;6.314;2024-02-15T10:47:57;20.10;99.90
42347;DHT22;75728;51.856;6.314;2024-02-15T10:50:23;20.10;99.90
42347;DHT22;75728;51.856;6.314;2024-02-15T10:52:56;20.10;99.90
42347;DHT22;75728;51.856;6.314;2024-02-15T10:58:01;20.10;99.90
42347;DHT22;75728;51.856;6.314;2024-02-15T11:00:32;20.10;99.90
42347;DHT22;75728;51.856;6.314;2024-02-15T11:03:02;20.20;99.90
42347;DHT22;75728;51.856;6.314;2024-02-15T11:05:35;20.20;99.90
42347;DHT22;75728;51.856;6.314;2024-02-15T11:08:09;20.20;99.90
42347;DHT22;75728;51.856;6.314;2024-02-15T11:10:36;20.20;99.90
42347;DHT22;75728;51.856;6.314;2024-02-15T11:13:02;20.20;99.90
42347;DHT22;75728;51.856;6.314;2024-02-15T11:18:06;20.20;99.90
42347;DHT22;75728;51.856;6.314;2024-02-15T11:22:58;20.30;99.90
42347;DHT22;75728;51.856;6.314;2024-02-15T11:25:34;20.20;99.90
42347;DHT22;75728;51.856;6.314;2024-02-15T11:30:50;20.30;99.90
42347;DHT22;75728;51.856;6.314;2024-02-15T11:33:31;20.30;99.90
42347;DHT22;75728;51.856;6.314;2024-02-15T11:36:15;20.20;99.90
42347;DHT22;75728;51.856;6.314;2024-02-15T11:38:43;20.20;99.90
42347;DHT22;75728;51.856;6.314;2024-02-15T11:41:09;20.20;99.90
42347;DHT22;75728;51.856;6.314;2024-02-15T11:46:17;20.30;99.90
42347;DHT22;75728;51.856;6.314;2024-02-15T11:48:46;20.30;99.90
42347;DHT22;75728;51.856;6.314;2024-02-15T11:56:32;20.30;99.90
42347;DHT22;75728;51.856;6.314;2024-02-15T11:59:05;20.30;99.90
42347;DHT22;75728;51.856;6.314;2024-02-15T12:01:33;20.20;99.90
42347;DHT22;75728;51.856;6.314;2024-02-15T12:04:18;20.20;99.90
42347;DHT22;75728;51.856;6.314;2024-02-15T12:07:02;20.30;99.90
42347;DHT22;75728;51.856;6.314;2024-02-15T12:09:46;20.30;99.90
42347;DHT22;75728;51.856;6.314;2024-02-15T12:12:30;20.20;99.90
42347;DHT22;75728;51.856;6.314;2024-02-15T12:15:14;20.30;99.90
42347;DHT22;75728;51.856;6.314;2024-02-15T12:18:15;20.30;99.90
42347;DHT22;75728;51.856;6.314;2024-02-15T12:21:00;20.30;99.90
42347;DHT22;75728;51.856;6.314;2024-02-15T12:23:28;20.30;99.90
42347;DHT22;75728;51.856;6.314;2024-02-15T12:25:53;20.20;99.90
42347;DHT22;75728;51.856;6.314;2024-02-15T12:28:19;20.20;99.90
42347;DHT22;75728;51.856;6.314;2024-02-15T12:30:45;20.20;99.90
42347;DHT22;75728;51.856;6.314;2024-02-15T12:33:12;20.30;99.90
42347;DHT22;75728;51.856;6.314;2024-02-15T12:35:44;20.30;99.90
42347;DHT22;75728;51.856;6.314;2024-02-15T12:38:12;20.30;99.90
42347;DHT22;75728;51.856;6.314;2024-02-15T12:40:41;20.30;99.90
42347;DHT22;75728;51.856;6.314;2024-02-15T12:43:07;20.20;99.90
42347;DHT22;75728;51.856;6.314;2024-02-15T12:45:38;20.30;99.90
42347;DHT22;75728;51.856;6.314;2024-02-15T12:48:05;20.30;99.90
42347;DHT22;75728;51.856;6.314;2024-02-15T12:50:31;20.30;99.90
42347;DHT22;75728;51.856;6.314;2024-02-15T12:52:57;20.30;99.90
42347;DHT22;75728;51.856;6.314;2024-02-15T12:55:32;20.20;99.90
42347;DHT22;75728;51.856;6.314;2024-02-15T12:58:03;20.20;99.90
42347;DHT22;75728;51.856;6.314;2024-02-15T13:00:31;20.20;99.90
42347;DHT22;75728;51.856;6.314;2024-02-15T13:02:59;20.20;99.90
42347;DHT22;75728;51.856;6.314;2024-02-15T13:05:28;20.30;99.90
42347;DHT22;75728;51.856;6.314;2024-02-15T13:07:55;20.30;99.90
42347;DHT22;75728;51.856;6.314;2024-02-15T13:10:22;20.20;99.90
42347;DHT22;75728;51.856;6.314;2024-02-15T13:12:48;20.20;99.90
42347;DHT22;75728;51.856;6.314;2024-02-15T13:15:15;20.20;99.90
42347;DHT22;75728;51.856;6.314;2024-02-15T13:17:48;20.20;99.90
42347;DHT22;75728;51.856;6.314;2024-02-15T13:20:16;20.30;99.90
42347;DHT22;75728;51.856;6.314;2024-02-15T13:22:46;20.20;99.90
42347;DHT22;75728;51.856;6.314;2024-02-15T13:25:15;20.30;99.90
42347;DHT22;75728;51.856;6.314;2024-02-15T13:27:46;20.30;99.90
42347;DHT22;75728;51.856;6.314;2024-02-15T13:30:12;20.20;99.90
42347;DHT22;75728;51.856;6.314;2024-02-15T13:32:41;20.30;99.90
42347;DHT22;75728;51.856;6.314;2024-02-15T13:35:08;20.20;99.90
42347;DHT22;75728;51.856;6.314;2024-02-15T13:37:46;20.20;99.90
42347;DHT22;75728;51.856;6.314;2024-02-15T13:40:12;20.30;99.90
42347;DHT22;75728;51.856;6.314;2024-02-15T13:42:44;20.20;99.90
42347;DHT22;75728;51.856;6.314;2024-02-15T13:45:20;20.30;99.90
42347;DHT22;75728;51.856;6.314;2024-02-15T13:47:50;20.20;99.90
42347;DHT22;75728;51.856;6.314;2024-02-15T13:50:17;20.30;99.90
42347;DHT22;75728;51.856;6.314;2024-02-15T13:52:46;20.20;99.90
42347;DHT22;75728;51.856;6.314;2024-02-15T13:55:15;20.30;99.90
42347;DHT22;75728;51.856;6.314;2024-02-15T13:57:43;20.30;99.90
42347;DHT22;75728;51.856;6.314;2024-02-15T14:00:13;20.20;99.90
42347;DHT22;75728;51.856;6.314;2024-02-15T14:02:50;20.20;99.90
42347;DHT22;75728;51.856;6.314;2024-02-15T14:05:16;20.20;99.90
42347;DHT22;75728;51.856;6.314;2024-02-15T14:07:49;20.20;99.90
42347;DHT22;75728;51.856;6.314;2024-02-15T14:10:16;20.30;99.90
42347;DHT22;75728;51.856;6.314;2024-02-15T14:12:49;20.20;99.90
42347;DHT22;75728;51.856;6.314;2024-02-15T14:15:16;20.30;99.90
42347;DHT22;75728;51.856;6.314;2024-02-15T14:17:43;20.20;99.90
42347;DHT22;75728;51.856;6.314;2024-02-15T14:20:10;20.30;99.90
42347;DHT22;75728;51.856;6.314;2024-02-15T14:22:39;20.20;99.90
42347;DHT22;75728;51.856;6.314;2024-02-15T14:25:06;20.20;99.90
42347;DHT22;75728;51.856;6.314;2024-02-15T14:27:32;20.30;99.90
42347;DHT22;75728;51.856;6.314;2024-02-15T14:29:58;20.20;99.90
42347;DHT22;75728;51.856;6.314;2024-02-15T14:32:42;20.20;99.90
42347;DHT22;75728;51.856;6.314;2024-02-15T14:35:27;20.20;99.90
42347;DHT22;75728;51.856;6.314;2024-02-15T14:37:55;20.30;99.90
42347;DHT22;75728;51.856;6.314;2024-02-15T14:40:24;20.30;99.90
42347;DHT22;75728;51.856;6.314;2024-02-15T14:42:50;20.30;99.90
42347;DHT22;75728;51.856;6.314;2024-02-15T14:45:16;20.30;99.90
42347;DHT22;75728;51.856;6.314;2024-02-15T14:47:41;20.30;99.90
42347;DHT22;75728;51.856;6.314;2024-02-15T14:50:08;20.30;99.90
42347;DHT22;75728;51.856;6.314;2024-02-15T14:52:37;20.30;99.90
42347;DHT22;75728;51.856;6.314;2024-02-15T14:55:04;20.40;99.90
42347;DHT22;75728;51.856;6.314;2024-02-15T14:57:31;20.40;99.90
42347;DHT22;75728;51.856;6.314;2024-02-15T14:59:58;20.30;99.90
42347;DHT22;75728;51.856;6.314;2024-02-15T15:02:24;20.40;99.90
42347;DHT22;75728;51.856;6.314;2024-02-15T15:04:50;20.40;99.90
42347;DHT22;75728;51.856;6.314;2024-02-15T15:07:34;20.40;99.90
42347;DHT22;75728;51.856;6.314;2024-02-15T15:10:18;20.40;99.90
42347;DHT22;75728;51.856;6.314;2024-02-15T15:13:02;20.40;99.90
42347;DHT22;75728;51.856;6.314;2024-02-15T15:15:28;20.40;99.90
42347;DHT22;75728;51.856;6.314;2024-02-15T15:17:54;20.40;99.90
42347;DHT22;75728;51.856;6.314;2024-02-15T15:20:21;20.40;99.90
42347;DHT22;75728;51.856;6.314;2024-02-15T15:22:46;20.50;99.90
42347;DHT22;75728;51.856;6.314;2024-02-15T15:25:12;20.40;99.90
42347;DHT22;75728;51.856;6.314;2024-02-15T15:27:38;20.40;99.90
42347;DHT22;75728;51.856;6.314;2024-02-15T15:30:06;20.40;99.90
42347;DHT22;75728;51.856;6.314;2024-02-15T15:32:31;20.50;99.90
42347;DHT22;75728;51.856;6.314;2024-02-15T15:34:59;20.50;99.90
42347;DHT22;75728;51.856;6.314;2024-02-15T15:37:24;20.50;99.90
42347;DHT22;75728;51.856;6.314;2024-02-15T15:39:50;20.40;99.90
42347;DHT22;75728;51.856;6.314;2024-02-15T15:42:16;20.50;99.90
42347;DHT22;75728;51.856;6.314;2024-02-15T15:44:43;20.50;99.90
42347;DHT22;75728;51.856;6.314;2024-02-15T15:47:09;20.40;99.90
42347;DHT22;75728;51.856;6.314;2024-02-15T15:49:35;20.50;99.90
42347;DHT22;75728;51.856;6.314;2024-02-15T15:52:01;20.50;99.90
42347;DHT22;75728;51.856;6.314;2024-02-15T15:54:27;20.50;99.90
42347;DHT22;75728;51.856;6.314;2024-02-15T15:56:52;20.50;99.90